OZR - Cairns Aaf (Fort Novosel)

Pirep is a free, collaborative database of all public and private airports located within the United States. All pilots are welcome to contribute, edit, and improve any airport they have local knowledge about, no registration required.
Are you familiar with this airport? Help out other pilots by adding your local knowledge.
Uploaded photos will be licensed under a CC BY-SA 4.0 license. Please only upload photos you have the rights to use.
Tags
Undocu­mented
METAR / TAF
Edit Tags
Food
Camping
Lodging
Car Rental
Bicycles
Swimming
Golfing
Fishing
Hot Springs
Museum
Flying Clubs
Airpark
Upcoming Events
No upcoming events. Is anything happening here soon?
*
*
*

Where exactly on/near the airport is this event taking place?

Is there a webpage with more information for this event?

Who should be contacted for more information?

What is this event all about?

Repeat every
Description
Transient Parking
Fuel Location
Landing & Tie-down Fees
Crew Car Availability
Flying Clubs
WiFi Access
Airport Statistics
Location: Fort Novosel (Ozark), AL
Elevation: 301ft
Sectional: New Orleans
Activation date: Oct 1943
Fuel: None
Runway 18/36: 5,025ft
Runway 06/24: 4,546ft
Runway H3: 50ft
Runway H4: 50ft
Runway H5: 50ft
Runway H2: 50ft
Runway H1: 50ft
Access: Private to everyone
This is a military facility.
Current Weather — VFR
  • Weather data is strictly informational and not for flight planning purposes.
  • METAR
    2024-04-22 07:55:00 CDT
    Ceiling Wind Temperature Dewpoint Weather Visbility
    Sky clear 350° @ 10kt 52°F 38°F N/A 10SM
    Raw: KOZR 221255Z AUTO 35010KT 10SM CLR 12/04 A3013 RMK AO2 SLP205 T01160036 $
  • TAF
    2024-04-22 05:00:00 CDT – 2024-04-22 09:00:00 CDT
    Ceiling Wind Weather Visbility
    Sky clear 340° @ 12kt N/A 6SM
    Clouds: @ ft
    Raw: TAF KOZR 221000Z 2210/2316 34012KT 9999 SKC QNH3000INS TEMPO 2211/2215 36015G20KT BECMG 2214/2215 01010KT 9999 SKC QNH3004INS TX21/2220Z TN09/2311Z
  • TAF
    2024-04-22 06:00:00 CDT – 2024-04-22 10:00:00 CDT
    Ceiling Wind Weather Visbility
    Sky clear 360° @ 15kt, gusts 20kt N/A SM
    Raw: TAF KOZR 221000Z 2210/2316 34012KT 9999 SKC QNH3000INS TEMPO 2211/2215 36015G20KT BECMG 2214/2215 01010KT 9999 SKC QNH3004INS TX21/2220Z TN09/2311Z
  • TAF
    2024-04-22 09:00:00 CDT – 2024-04-23 11:00:00 CDT
    Ceiling Wind Weather Visbility
    Sky clear 10° @ 10kt N/A 6SM
    Clouds: @ ft
    Raw: TAF KOZR 221000Z 2210/2316 34012KT 9999 SKC QNH3000INS TEMPO 2211/2215 36015G20KT BECMG 2214/2215 01010KT 9999 SKC QNH3004INS TX21/2220Z TN09/2311Z
Click/tap to add an annotation marker to the map
Airport Webcams
No webcams added yet.
Direct links to live image URLs will be displayed inline on this page. URLs to separate webpages will be linked to.
URL:
Direct links to live image URLs will be displayed inline on this page. URLs to separate webpages will be linked to.
URL:
Remarks
  • Jasu: (md-3)
  • Fuel: j8 avcard and aircards are accepted. identaplates for acft are not accepted.
  • Oil: o-156
  • Caution: possible hydroplaning due to standing water on int of rwy 06-24 and 18-36 flw rain.
  • Caution: ints stu trng.
Comments
Leave a comment What was your experience like at this airport?